sensor_id;sensor_type;location;lat;lon;timestamp;P1;durP1;ratioP1;P2;durP2;ratioP2
73337;SDS011;61575;49.908;35.556;2023-05-23T00:02:49;7.93;;;3.05;;
73337;SDS011;61575;49.908;35.556;2023-05-23T00:05:51;6.03;;;2.70;;
73337;SDS011;61575;49.908;35.556;2023-05-23T00:08:54;7.53;;;2.60;;
73337;SDS011;61575;49.908;35.556;2023-05-23T00:11:57;5.00;;;2.30;;
73337;SDS011;61575;49.908;35.556;2023-05-23T00:14:59;5.50;;;2.13;;
73337;SDS011;61575;49.908;35.556;2023-05-23T00:18:02;4.75;;;2.40;;
73337;SDS011;61575;49.908;35.556;2023-05-23T00:21:04;3.85;;;1.80;;
73337;SDS011;61575;49.908;35.556;2023-05-23T00:24:05;4.40;;;1.90;;
73337;SDS011;61575;49.908;35.556;2023-05-23T00:27:08;3.90;;;1.75;;
73337;SDS011;61575;49.908;35.556;2023-05-23T00:30:10;4.25;;;1.70;;
73337;SDS011;61575;49.908;35.556;2023-05-23T00:33:12;4.28;;;1.52;;
73337;SDS011;61575;49.908;35.556;2023-05-23T00:36:15;3.38;;;1.60;;
73337;SDS011;61575;49.908;35.556;2023-05-23T00:39:16;4.13;;;1.87;;
73337;SDS011;61575;49.908;35.556;2023-05-23T00:42:22;3.50;;;1.80;;
73337;SDS011;61575;49.908;35.556;2023-05-23T00:45:24;3.67;;;1.60;;
73337;SDS011;61575;49.908;35.556;2023-05-23T00:48:25;4.40;;;1.80;;
73337;SDS011;61575;49.908;35.556;2023-05-23T00:51:28;4.47;;;2.13;;
73337;SDS011;61575;49.908;35.556;2023-05-23T00:54:30;6.50;;;2.30;;
73337;SDS011;61575;49.908;35.556;2023-05-23T00:57:32;5.10;;;2.28;;
73337;SDS011;61575;49.908;35.556;2023-05-23T01:00:35;5.72;;;2.63;;
73337;SDS011;61575;49.908;35.556;2023-05-23T01:03:39;6.63;;;2.42;;
73337;SDS011;61575;49.908;35.556;2023-05-23T01:06:41;5.45;;;2.05;;
73337;SDS011;61575;49.908;35.556;2023-05-23T01:09:47;4.78;;;2.20;;
73337;SDS011;61575;49.908;35.556;2023-05-23T01:19:43;3.15;;;1.55;;
73337;SDS011;61575;49.908;35.556;2023-05-23T01:29:42;4.43;;;1.50;;
73337;SDS011;61575;49.908;35.556;2023-05-23T01:32:47;3.80;;;1.50;;
73337;SDS011;61575;49.908;35.556;2023-05-23T01:35:54;3.20;;;1.60;;
73337;SDS011;61575;49.908;35.556;2023-05-23T01:38:58;4.03;;;1.60;;
73337;SDS011;61575;49.908;35.556;2023-05-23T01:42:01;3.78;;;1.50;;
73337;SDS011;61575;49.908;35.556;2023-05-23T01:45:05;3.75;;;1.40;;
73337;SDS011;61575;49.908;35.556;2023-05-23T01:48:09;3.13;;;1.20;;
73337;SDS011;61575;49.908;35.556;2023-05-23T01:51:13;3.50;;;1.42;;
73337;SDS011;61575;49.908;35.556;2023-05-23T01:54:16;3.35;;;1.40;;
73337;SDS011;61575;49.908;35.556;2023-05-23T01:57:22;2.92;;;1.30;;
73337;SDS011;61575;49.908;35.556;2023-05-23T02:00:24;4.13;;;1.40;;
73337;SDS011;61575;49.908;35.556;2023-05-23T02:03:27;2.63;;;1.27;;
73337;SDS011;61575;49.908;35.556;2023-05-23T02:06:29;3.60;;;1.38;;
73337;SDS011;61575;49.908;35.556;2023-05-23T02:09:32;3.53;;;1.50;;
73337;SDS011;61575;49.908;35.556;2023-05-23T02:12:34;3.27;;;1.73;;
73337;SDS011;61575;49.908;35.556;2023-05-23T02:15:36;2.78;;;1.30;;
73337;SDS011;61575;49.908;35.556;2023-05-23T02:18:38;4.50;;;1.80;;
73337;SDS011;61575;49.908;35.556;2023-05-23T02:21:40;4.03;;;1.42;;
73337;SDS011;61575;49.908;35.556;2023-05-23T02:24:42;4.57;;;1.90;;
73337;SDS011;61575;49.908;35.556;2023-05-23T02:27:46;5.18;;;1.83;;
73337;SDS011;61575;49.908;35.556;2023-05-23T02:30:48;7.10;;;2.30;;
73337;SDS011;61575;49.908;35.556;2023-05-23T02:33:50;4.28;;;2.00;;
73337;SDS011;61575;49.908;35.556;2023-05-23T02:36:52;4.22;;;1.50;;
73337;SDS011;61575;49.908;35.556;2023-05-23T02:39:55;3.75;;;1.65;;
73337;SDS011;61575;49.908;35.556;2023-05-23T02:42:57;3.45;;;1.50;;
73337;SDS011;61575;49.908;35.556;2023-05-23T02:45:59;3.95;;;1.73;;
73337;SDS011;61575;49.908;35.556;2023-05-23T02:49:01;2.90;;;1.42;;
73337;SDS011;61575;49.908;35.556;2023-05-23T02:52:05;2.90;;;1.27;;
73337;SDS011;61575;49.908;35.556;2023-05-23T02:58:14;3.47;;;1.30;;
73337;SDS011;61575;49.908;35.556;2023-05-23T03:01:16;3.53;;;1.38;;
73337;SDS011;61575;49.908;35.556;2023-05-23T03:04:19;2.38;;;1.30;;
73337;SDS011;61575;49.908;35.556;2023-05-23T03:07:21;3.67;;;1.17;;
73337;SDS011;61575;49.908;35.556;2023-05-23T03:10:29;3.15;;;1.30;;
73337;SDS011;61575;49.908;35.556;2023-05-23T03:13:31;2.93;;;1.10;;
73337;SDS011;61575;49.908;35.556;2023-05-23T03:16:33;2.15;;;1.20;;
73337;SDS011;61575;49.908;35.556;2023-05-23T03:19:35;3.00;;;1.50;;
73337;SDS011;61575;49.908;35.556;2023-05-23T03:22:37;5.35;;;1.70;;
73337;SDS011;61575;49.908;35.556;2023-05-23T03:25:40;3.95;;;1.70;;
73337;SDS011;61575;49.908;35.556;2023-05-23T03:28:43;3.90;;;1.60;;
73337;SDS011;61575;49.908;35.556;2023-05-23T03:31:45;4.10;;;1.30;;
73337;SDS011;61575;49.908;35.556;2023-05-23T03:34:47;3.55;;;1.35;;
73337;SDS011;61575;49.908;35.556;2023-05-23T03:37:49;4.03;;;1.40;;
73337;SDS011;61575;49.908;35.556;2023-05-23T03:40:51;3.65;;;1.30;;
73337;SDS011;61575;49.908;35.556;2023-05-23T03:43:54;3.67;;;1.20;;
73337;SDS011;61575;49.908;35.556;2023-05-23T03:46:56;2.20;;;1.10;;
73337;SDS011;61575;49.908;35.556;2023-05-23T03:49:58;2.45;;;1.25;;
73337;SDS011;61575;49.908;35.556;2023-05-23T03:53:01;2.53;;;1.05;;
73337;SDS011;61575;49.908;35.556;2023-05-23T03:56:03;2.42;;;1.15;;
73337;SDS011;61575;49.908;35.556;2023-05-23T03:59:06;3.13;;;1.70;;
73337;SDS011;61575;49.908;35.556;2023-05-23T04:02:08;3.35;;;1.30;;
73337;SDS011;61575;49.908;35.556;2023-05-23T04:08:14;5.38;;;1.33;;
73337;SDS011;61575;49.908;35.556;2023-05-23T04:11:16;3.00;;;1.27;;
73337;SDS011;61575;49.908;35.556;2023-05-23T04:14:19;2.97;;;1.30;;
73337;SDS011;61575;49.908;35.556;2023-05-23T04:17:23;3.40;;;1.40;;
73337;SDS011;61575;49.908;35.556;2023-05-23T04:20:26;4.07;;;1.42;;
73337;SDS011;61575;49.908;35.556;2023-05-23T04:23:28;2.92;;;1.40;;
73337;SDS011;61575;49.908;35.556;2023-05-23T04:29:34;3.00;;;1.50;;
73337;SDS011;61575;49.908;35.556;2023-05-23T04:32:36;3.08;;;1.42;;
73337;SDS011;61575;49.908;35.556;2023-05-23T04:35:39;4.85;;;1.90;;
73337;SDS011;61575;49.908;35.556;2023-05-23T04:38:42;4.40;;;2.05;;
73337;SDS011;61575;49.908;35.556;2023-05-23T04:41:44;4.50;;;1.87;;
73337;SDS011;61575;49.908;35.556;2023-05-23T04:44:52;3.72;;;1.70;;
73337;SDS011;61575;49.908;35.556;2023-05-23T04:48:11;3.72;;;1.55;;
73337;SDS011;61575;49.908;35.556;2023-05-23T04:51:19;3.72;;;1.55;;
73337;SDS011;61575;49.908;35.556;2023-05-23T04:54:27;3.08;;;1.20;;
73337;SDS011;61575;49.908;35.556;2023-05-23T04:57:32;4.13;;;1.60;;
73337;SDS011;61575;49.908;35.556;2023-05-23T05:00:35;6.78;;;1.55;;
73337;SDS011;61575;49.908;35.556;2023-05-23T05:03:38;3.58;;;1.30;;
73337;SDS011;61575;49.908;35.556;2023-05-23T05:06:40;4.32;;;1.42;;
73337;SDS011;61575;49.908;35.556;2023-05-23T05:09:43;5.72;;;1.55;;
73337;SDS011;61575;49.908;35.556;2023-05-23T05:12:46;5.22;;;1.80;;
73337;SDS011;61575;49.908;35.556;2023-05-23T05:15:50;3.22;;;1.40;;
73337;SDS011;61575;49.908;35.556;2023-05-23T05:18:53;3.13;;;1.50;;
73337;SDS011;61575;49.908;35.556;2023-05-23T05:21:55;4.35;;;1.60;;
73337;SDS011;61575;49.908;35.556;2023-05-23T05:28:00;4.03;;;1.40;;
73337;SDS011;61575;49.908;35.556;2023-05-23T05:31:13;4.13;;;1.60;;
73337;SDS011;61575;49.908;35.556;2023-05-23T05:34:17;3.90;;;1.55;;
73337;SDS011;61575;49.908;35.556;2023-05-23T05:37:19;4.93;;;1.75;;
73337;SDS011;61575;49.908;35.556;2023-05-23T05:40:21;3.00;;;1.52;;
73337;SDS011;61575;49.908;35.556;2023-05-23T05:43:24;4.45;;;1.50;;
73337;SDS011;61575;49.908;35.556;2023-05-23T05:46:27;3.53;;;1.50;;
73337;SDS011;61575;49.908;35.556;2023-05-23T05:49:29;3.13;;;1.60;;
73337;SDS011;61575;49.908;35.556;2023-05-23T05:52:32;3.67;;;1.60;;
73337;SDS011;61575;49.908;35.556;2023-05-23T05:55:36;3.00;;;1.42;;
73337;SDS011;61575;49.908;35.556;2023-05-23T05:58:38;3.25;;;1.48;;
73337;SDS011;61575;49.908;35.556;2023-05-23T06:01:42;5.85;;;2.30;;
73337;SDS011;61575;49.908;35.556;2023-05-23T06:04:45;8.02;;;3.05;;
73337;SDS011;61575;49.908;35.556;2023-05-23T06:07:48;7.53;;;3.05;;
73337;SDS011;61575;49.908;35.556;2023-05-23T06:10:50;6.60;;;2.92;;
73337;SDS011;61575;49.908;35.556;2023-05-23T06:13:53;6.90;;;2.95;;
73337;SDS011;61575;49.908;35.556;2023-05-23T06:16:54;6.70;;;2.80;;
73337;SDS011;61575;49.908;35.556;2023-05-23T06:19:56;5.18;;;2.30;;
73337;SDS011;61575;49.908;35.556;2023-05-23T06:22:59;5.60;;;2.22;;
73337;SDS011;61575;49.908;35.556;2023-05-23T06:29:04;5.90;;;2.28;;
73337;SDS011;61575;49.908;35.556;2023-05-23T06:32:08;7.78;;;2.83;;
73337;SDS011;61575;49.908;35.556;2023-05-23T06:35:10;7.43;;;2.17;;
73337;SDS011;61575;49.908;35.556;2023-05-23T06:38:12;6.22;;;2.33;;
73337;SDS011;61575;49.908;35.556;2023-05-23T06:41:17;7.22;;;2.65;;
73337;SDS011;61575;49.908;35.556;2023-05-23T06:44:19;6.67;;;3.10;;
73337;SDS011;61575;49.908;35.556;2023-05-23T06:47:26;8.65;;;3.47;;
73337;SDS011;61575;49.908;35.556;2023-05-23T06:50:28;6.88;;;3.40;;
73337;SDS011;61575;49.908;35.556;2023-05-23T06:53:30;6.80;;;2.90;;
73337;SDS011;61575;49.908;35.556;2023-05-23T06:56:33;4.85;;;2.35;;
73337;SDS011;61575;49.908;35.556;2023-05-23T06:59:35;4.93;;;1.80;;
73337;SDS011;61575;49.908;35.556;2023-05-23T07:02:38;3.95;;;1.95;;
73337;SDS011;61575;49.908;35.556;2023-05-23T07:05:40;5.55;;;2.00;;
73337;SDS011;61575;49.908;35.556;2023-05-23T07:08:44;5.43;;;2.13;;
73337;SDS011;61575;49.908;35.556;2023-05-23T07:11:48;4.35;;;2.17;;
73337;SDS011;61575;49.908;35.556;2023-05-23T07:14:50;4.70;;;2.10;;
73337;SDS011;61575;49.908;35.556;2023-05-23T07:17:54;5.13;;;1.73;;
73337;SDS011;61575;49.908;35.556;2023-05-23T07:20:56;3.75;;;1.80;;
73337;SDS011;61575;49.908;35.556;2023-05-23T07:23:59;4.90;;;2.05;;
73337;SDS011;61575;49.908;35.556;2023-05-23T07:27:02;4.80;;;1.83;;
73337;SDS011;61575;49.908;35.556;2023-05-23T07:30:06;4.88;;;2.05;;
73337;SDS011;61575;49.908;35.556;2023-05-23T07:33:11;4.22;;;2.00;;
73337;SDS011;61575;49.908;35.556;2023-05-23T07:36:13;3.88;;;1.80;;
73337;SDS011;61575;49.908;35.556;2023-05-23T07:39:16;5.45;;;1.83;;
73337;SDS011;61575;49.908;35.556;2023-05-23T07:42:23;3.63;;;1.92;;
73337;SDS011;61575;49.908;35.556;2023-05-23T07:45:25;3.95;;;1.95;;
73337;SDS011;61575;49.908;35.556;2023-05-23T07:48:27;3.92;;;1.60;;
73337;SDS011;61575;49.908;35.556;2023-05-23T07:51:29;4.10;;;1.90;;
73337;SDS011;61575;49.908;35.556;2023-05-23T07:54:33;6.05;;;2.00;;
73337;SDS011;61575;49.908;35.556;2023-05-23T07:57:36;4.30;;;1.75;;
73337;SDS011;61575;49.908;35.556;2023-05-23T08:00:38;4.90;;;1.83;;
73337;SDS011;61575;49.908;35.556;2023-05-23T08:03:52;4.45;;;1.85;;
73337;SDS011;61575;49.908;35.556;2023-05-23T08:07:01;3.47;;;1.50;;
73337;SDS011;61575;49.908;35.556;2023-05-23T08:10:16;3.65;;;1.60;;
73337;SDS011;61575;49.908;35.556;2023-05-23T08:13:19;3.42;;;1.65;;
73337;SDS011;61575;49.908;35.556;2023-05-23T08:16:41;4.82;;;1.52;;
73337;SDS011;61575;49.908;35.556;2023-05-23T08:19:51;4.07;;;1.88;;
73337;SDS011;61575;49.908;35.556;2023-05-23T08:22:53;3.20;;;1.65;;
73337;SDS011;61575;49.908;35.556;2023-05-23T08:25:59;3.92;;;1.75;;
73337;SDS011;61575;49.908;35.556;2023-05-23T08:29:01;5.18;;;2.03;;
73337;SDS011;61575;49.908;35.556;2023-05-23T08:32:04;3.67;;;1.92;;
73337;SDS011;61575;49.908;35.556;2023-05-23T08:35:08;4.22;;;2.00;;
73337;SDS011;61575;49.908;35.556;2023-05-23T08:38:11;3.17;;;1.70;;
73337;SDS011;61575;49.908;35.556;2023-05-23T08:44:34;4.60;;;1.85;;
73337;SDS011;61575;49.908;35.556;2023-05-23T08:47:36;4.40;;;1.92;;
73337;SDS011;61575;49.908;35.556;2023-05-23T08:50:42;4.85;;;1.95;;
73337;SDS011;61575;49.908;35.556;2023-05-23T08:53:49;5.25;;;1.70;;
73337;SDS011;61575;49.908;35.556;2023-05-23T08:56:56;4.75;;;2.03;;
73337;SDS011;61575;49.908;35.556;2023-05-23T08:59:58;3.88;;;2.08;;
73337;SDS011;61575;49.908;35.556;2023-05-23T09:03:02;4.07;;;2.25;;
73337;SDS011;61575;49.908;35.556;2023-05-23T09:06:27;4.53;;;1.85;;
73337;SDS011;61575;49.908;35.556;2023-05-23T09:09:30;4.22;;;2.00;;
73337;SDS011;61575;49.908;35.556;2023-05-23T09:12:36;3.83;;;1.90;;
73337;SDS011;61575;49.908;35.556;2023-05-23T09:18:58;6.15;;;2.08;;
73337;SDS011;61575;49.908;35.556;2023-05-23T09:22:02;4.32;;;1.80;;
73337;SDS011;61575;49.908;35.556;2023-05-23T09:25:10;5.13;;;2.00;;
73337;SDS011;61575;49.908;35.556;2023-05-23T09:28:14;3.20;;;1.50;;
73337;SDS011;61575;49.908;35.556;2023-05-23T09:31:17;4.32;;;1.90;;
73337;SDS011;61575;49.908;35.556;2023-05-23T09:34:19;3.97;;;1.92;;
73337;SDS011;61575;49.908;35.556;2023-05-23T09:37:21;5.45;;;2.38;;
73337;SDS011;61575;49.908;35.556;2023-05-23T09:40:31;4.80;;;2.10;;
73337;SDS011;61575;49.908;35.556;2023-05-23T09:43:35;4.80;;;2.20;;
73337;SDS011;61575;49.908;35.556;2023-05-23T09:46:39;3.65;;;1.90;;
73337;SDS011;61575;49.908;35.556;2023-05-23T09:49:44;4.68;;;2.20;;
73337;SDS011;61575;49.908;35.556;2023-05-23T09:52:46;5.78;;;2.45;;
73337;SDS011;61575;49.908;35.556;2023-05-23T09:55:52;3.80;;;2.00;;
73337;SDS011;61575;49.908;35.556;2023-05-23T09:58:56;4.20;;;1.80;;
73337;SDS011;61575;49.908;35.556;2023-05-23T10:01:59;5.43;;;2.45;;
73337;SDS011;61575;49.908;35.556;2023-05-23T10:05:05;6.38;;;2.45;;
73337;SDS011;61575;49.908;35.556;2023-05-23T10:08:10;9.13;;;3.08;;
73337;SDS011;61575;49.908;35.556;2023-05-23T10:14:39;5.30;;;1.80;;
73337;SDS011;61575;49.908;35.556;2023-05-23T10:18:00;3.67;;;1.63;;
73337;SDS011;61575;49.908;35.556;2023-05-23T10:21:08;3.83;;;1.95;;
73337;SDS011;61575;49.908;35.556;2023-05-23T10:24:12;5.43;;;1.67;;
73337;SDS011;61575;49.908;35.556;2023-05-23T10:27:15;3.55;;;1.65;;
73337;SDS011;61575;49.908;35.556;2023-05-23T10:30:16;3.80;;;1.80;;
73337;SDS011;61575;49.908;35.556;2023-05-23T10:33:19;4.15;;;1.77;;
73337;SDS011;61575;49.908;35.556;2023-05-23T10:36:32;4.43;;;2.10;;
73337;SDS011;61575;49.908;35.556;2023-05-23T10:46:03;5.30;;;2.05;;
73337;SDS011;61575;49.908;35.556;2023-05-23T10:49:05;4.80;;;2.00;;
73337;SDS011;61575;49.908;35.556;2023-05-23T10:52:10;4.63;;;2.30;;
73337;SDS011;61575;49.908;35.556;2023-05-23T10:55:14;3.85;;;2.00;;
73337;SDS011;61575;49.908;35.556;2023-05-23T10:58:19;4.00;;;1.90;;
73337;SDS011;61575;49.908;35.556;2023-05-23T11:01:23;3.85;;;1.90;;
73337;SDS011;61575;49.908;35.556;2023-05-23T11:04:27;3.33;;;1.80;;
73337;SDS011;61575;49.908;35.556;2023-05-23T11:07:30;4.57;;;2.40;;
73337;SDS011;61575;49.908;35.556;2023-05-23T11:10:54;4.05;;;2.10;;
73337;SDS011;61575;49.908;35.556;2023-05-23T11:14:02;4.75;;;2.05;;
73337;SDS011;61575;49.908;35.556;2023-05-23T11:17:17;4.60;;;2.03;;
73337;SDS011;61575;49.908;35.556;2023-05-23T11:20:30;4.40;;;1.90;;
73337;SDS011;61575;49.908;35.556;2023-05-23T11:23:39;5.07;;;1.80;;
73337;SDS011;61575;49.908;35.556;2023-05-23T11:26:56;3.88;;;1.67;;
73337;SDS011;61575;49.908;35.556;2023-05-23T11:33:10;3.83;;;1.77;;
73337;SDS011;61575;49.908;35.556;2023-05-23T11:36:14;4.72;;;1.90;;
73337;SDS011;61575;49.908;35.556;2023-05-23T11:39:16;3.38;;;1.67;;
73337;SDS011;61575;49.908;35.556;2023-05-23T11:42:19;4.45;;;1.98;;
73337;SDS011;61575;49.908;35.556;2023-05-23T11:45:23;2.83;;;1.38;;
73337;SDS011;61575;49.908;35.556;2023-05-23T11:48:25;3.70;;;1.52;;
73337;SDS011;61575;49.908;35.556;2023-05-23T11:51:27;3.33;;;1.50;;
73337;SDS011;61575;49.908;35.556;2023-05-23T11:54:29;3.67;;;1.60;;
73337;SDS011;61575;49.908;35.556;2023-05-23T11:57:31;2.88;;;1.50;;
73337;SDS011;61575;49.908;35.556;2023-05-23T12:00:33;4.18;;;1.50;;
73337;SDS011;61575;49.908;35.556;2023-05-23T12:03:47;4.53;;;1.65;;
73337;SDS011;61575;49.908;35.556;2023-05-23T12:06:51;2.70;;;1.50;;
73337;SDS011;61575;49.908;35.556;2023-05-23T12:09:55;3.25;;;1.60;;
73337;SDS011;61575;49.908;35.556;2023-05-23T12:12:57;3.30;;;1.63;;
73337;SDS011;61575;49.908;35.556;2023-05-23T12:16:00;5.32;;;1.80;;
73337;SDS011;61575;49.908;35.556;2023-05-23T12:19:03;3.25;;;1.77;;
73337;SDS011;61575;49.908;35.556;2023-05-23T12:22:07;5.93;;;2.03;;
73337;SDS011;61575;49.908;35.556;2023-05-23T12:25:09;4.85;;;2.08;;
73337;SDS011;61575;49.908;35.556;2023-05-23T12:31:18;3.67;;;1.88;;
73337;SDS011;61575;49.908;35.556;2023-05-23T12:34:21;3.63;;;1.70;;
73337;SDS011;61575;49.908;35.556;2023-05-23T12:37:23;4.22;;;1.95;;
73337;SDS011;61575;49.908;35.556;2023-05-23T12:43:28;3.75;;;1.77;;
73337;SDS011;61575;49.908;35.556;2023-05-23T12:46:30;4.55;;;1.75;;
73337;SDS011;61575;49.908;35.556;2023-05-23T12:49:32;4.43;;;1.77;;
73337;SDS011;61575;49.908;35.556;2023-05-23T12:52:34;3.90;;;1.90;;
73337;SDS011;61575;49.908;35.556;2023-05-23T12:55:37;4.13;;;1.85;;
73337;SDS011;61575;49.908;35.556;2023-05-23T13:01:41;3.30;;;1.60;;
73337;SDS011;61575;49.908;35.556;2023-05-23T13:04:43;3.20;;;1.90;;
73337;SDS011;61575;49.908;35.556;2023-05-23T13:07:45;4.28;;;1.88;;
73337;SDS011;61575;49.908;35.556;2023-05-23T13:10:47;3.95;;;1.92;;
73337;SDS011;61575;49.908;35.556;2023-05-23T13:13:50;4.05;;;1.52;;
73337;SDS011;61575;49.908;35.556;2023-05-23T13:16:52;3.63;;;1.80;;
73337;SDS011;61575;49.908;35.556;2023-05-23T13:19:54;4.38;;;1.63;;
73337;SDS011;61575;49.908;35.556;2023-05-23T13:22:56;3.15;;;1.60;;
73337;SDS011;61575;49.908;35.556;2023-05-23T13:25:58;3.70;;;1.63;;
73337;SDS011;61575;49.908;35.556;2023-05-23T13:29:00;3.03;;;1.30;;
73337;SDS011;61575;49.908;35.556;2023-05-23T13:32:02;3.28;;;1.40;;
73337;SDS011;61575;49.908;35.556;2023-05-23T13:35:04;4.10;;;1.50;;
73337;SDS011;61575;49.908;35.556;2023-05-23T13:38:06;3.88;;;1.50;;
73337;SDS011;61575;49.908;35.556;2023-05-23T13:41:08;4.28;;;1.52;;
73337;SDS011;61575;49.908;35.556;2023-05-23T13:44:10;3.20;;;1.52;;
73337;SDS011;61575;49.908;35.556;2023-05-23T13:47:13;2.92;;;1.48;;
73337;SDS011;61575;49.908;35.556;2023-05-23T13:50:16;4.30;;;1.70;;
73337;SDS011;61575;49.908;35.556;2023-05-23T13:53:18;3.40;;;1.60;;
73337;SDS011;61575;49.908;35.556;2023-05-23T13:56:21;3.08;;;1.33;;
73337;SDS011;61575;49.908;35.556;2023-05-23T13:59:25;3.15;;;1.20;;
73337;SDS011;61575;49.908;35.556;2023-05-23T14:02:27;2.92;;;1.50;;
73337;SDS011;61575;49.908;35.556;2023-05-23T14:05:30;3.50;;;1.40;;
73337;SDS011;61575;49.908;35.556;2023-05-23T14:08:32;4.13;;;1.65;;
73337;SDS011;61575;49.908;35.556;2023-05-23T14:14:36;2.50;;;1.20;;
73337;SDS011;61575;49.908;35.556;2023-05-23T14:17:38;2.80;;;1.25;;
73337;SDS011;61575;49.908;35.556;2023-05-23T14:20:40;3.97;;;1.50;;
73337;SDS011;61575;49.908;35.556;2023-05-23T14:23:42;3.70;;;1.63;;
73337;SDS011;61575;49.908;35.556;2023-05-23T14:26:45;4.20;;;1.67;;
73337;SDS011;61575;49.908;35.556;2023-05-23T14:29:47;2.88;;;1.48;;
73337;SDS011;61575;49.908;35.556;2023-05-23T14:32:50;5.28;;;1.60;;
73337;SDS011;61575;49.908;35.556;2023-05-23T14:35:52;2.70;;;1.30;;
73337;SDS011;61575;49.908;35.556;2023-05-23T14:38:54;4.95;;;1.85;;
73337;SDS011;61575;49.908;35.556;2023-05-23T14:41:56;4.50;;;1.60;;
73337;SDS011;61575;49.908;35.556;2023-05-23T14:44:58;3.13;;;1.50;;
73337;SDS011;61575;49.908;35.556;2023-05-23T14:48:00;3.63;;;2.00;;
73337;SDS011;61575;49.908;35.556;2023-05-23T14:51:02;3.35;;;1.60;;
73337;SDS011;61575;49.908;35.556;2023-05-23T14:54:04;3.03;;;1.58;;
73337;SDS011;61575;49.908;35.556;2023-05-23T14:57:07;2.95;;;1.48;;
73337;SDS011;61575;49.908;35.556;2023-05-23T15:00:09;3.50;;;1.70;;
73337;SDS011;61575;49.908;35.556;2023-05-23T15:03:12;3.35;;;1.63;;
73337;SDS011;61575;49.908;35.556;2023-05-23T15:06:15;5.40;;;2.15;;
73337;SDS011;61575;49.908;35.556;2023-05-23T15:09:16;2.90;;;1.60;;
73337;SDS011;61575;49.908;35.556;2023-05-23T15:12:19;4.18;;;1.73;;
73337;SDS011;61575;49.908;35.556;2023-05-23T15:15:21;3.58;;;1.40;;
73337;SDS011;61575;49.908;35.556;2023-05-23T15:18:24;3.55;;;1.90;;
73337;SDS011;61575;49.908;35.556;2023-05-23T15:21:41;3.50;;;2.00;;
73337;SDS011;61575;49.908;35.556;2023-05-23T15:24:51;3.30;;;1.83;;
73337;SDS011;61575;49.908;35.556;2023-05-23T15:27:53;3.05;;;1.45;;
73337;SDS011;61575;49.908;35.556;2023-05-23T15:30:56;4.95;;;1.90;;
73337;SDS011;61575;49.908;35.556;2023-05-23T15:33:59;3.90;;;1.80;;
73337;SDS011;61575;49.908;35.556;2023-05-23T15:37:01;4.22;;;1.90;;
73337;SDS011;61575;49.908;35.556;2023-05-23T15:40:03;3.90;;;1.77;;
73337;SDS011;61575;49.908;35.556;2023-05-23T15:46:07;3.45;;;1.55;;
73337;SDS011;61575;49.908;35.556;2023-05-23T15:49:09;2.83;;;1.50;;
73337;SDS011;61575;49.908;35.556;2023-05-23T15:52:26;2.95;;;1.40;;
73337;SDS011;61575;49.908;35.556;2023-05-23T15:55:29;3.92;;;1.40;;
73337;SDS011;61575;49.908;35.556;2023-05-23T15:58:31;3.45;;;1.40;;
73337;SDS011;61575;49.908;35.556;2023-05-23T16:01:33;3.35;;;1.40;;
73337;SDS011;61575;49.908;35.556;2023-05-23T16:07:37;2.78;;;1.30;;
73337;SDS011;61575;49.908;35.556;2023-05-23T16:10:39;4.63;;;1.40;;
73337;SDS011;61575;49.908;35.556;2023-05-23T16:13:41;2.63;;;1.30;;
73337;SDS011;61575;49.908;35.556;2023-05-23T16:16:43;3.22;;;1.45;;
73337;SDS011;61575;49.908;35.556;2023-05-23T16:19:44;2.85;;;1.48;;
73337;SDS011;61575;49.908;35.556;2023-05-23T16:22:46;3.22;;;1.30;;
73337;SDS011;61575;49.908;35.556;2023-05-23T16:25:48;2.95;;;1.48;;
73337;SDS011;61575;49.908;35.556;2023-05-23T16:28:50;2.38;;;1.23;;
73337;SDS011;61575;49.908;35.556;2023-05-23T16:31:52;2.97;;;1.40;;
73337;SDS011;61575;49.908;35.556;2023-05-23T16:34:54;2.58;;;1.33;;
73337;SDS011;61575;49.908;35.556;2023-05-23T16:37:56;3.40;;;1.48;;
73337;SDS011;61575;49.908;35.556;2023-05-23T16:40:58;3.00;;;1.42;;
73337;SDS011;61575;49.908;35.556;2023-05-23T16:43:59;2.50;;;1.30;;
73337;SDS011;61575;49.908;35.556;2023-05-23T16:47:01;2.50;;;1.20;;
73337;SDS011;61575;49.908;35.556;2023-05-23T16:50:03;3.15;;;1.30;;
73337;SDS011;61575;49.908;35.556;2023-05-23T16:56:07;3.70;;;1.60;;
73337;SDS011;61575;49.908;35.556;2023-05-23T16:59:09;3.42;;;1.40;;
73337;SDS011;61575;49.908;35.556;2023-05-23T17:02:12;3.60;;;1.15;;
73337;SDS011;61575;49.908;35.556;2023-05-23T17:05:15;2.72;;;1.40;;
73337;SDS011;61575;49.908;35.556;2023-05-23T17:08:16;3.25;;;1.40;;
73337;SDS011;61575;49.908;35.556;2023-05-23T17:11:18;2.45;;;1.23;;
73337;SDS011;61575;49.908;35.556;2023-05-23T17:14:20;3.13;;;1.50;;
73337;SDS011;61575;49.908;35.556;2023-05-23T17:17:22;3.83;;;1.90;;
73337;SDS011;61575;49.908;35.556;2023-05-23T17:20:24;3.75;;;1.73;;
73337;SDS011;61575;49.908;35.556;2023-05-23T17:23:27;4.30;;;1.95;;
73337;SDS011;61575;49.908;35.556;2023-05-23T17:26:29;3.72;;;1.63;;
73337;SDS011;61575;49.908;35.556;2023-05-23T17:29:31;3.33;;;1.73;;
73337;SDS011;61575;49.908;35.556;2023-05-23T17:32:33;5.55;;;2.10;;
73337;SDS011;61575;49.908;35.556;2023-05-23T17:35:35;4.25;;;1.70;;
73337;SDS011;61575;49.908;35.556;2023-05-23T17:38:37;3.25;;;1.42;;
73337;SDS011;61575;49.908;35.556;2023-05-23T17:41:39;4.63;;;2.50;;
73337;SDS011;61575;49.908;35.556;2023-05-23T17:44:42;5.55;;;2.70;;
73337;SDS011;61575;49.908;35.556;2023-05-23T17:47:44;4.30;;;2.30;;
73337;SDS011;61575;49.908;35.556;2023-05-23T17:50:47;4.43;;;2.00;;
73337;SDS011;61575;49.908;35.556;2023-05-23T17:53:49;3.63;;;1.65;;
73337;SDS011;61575;49.908;35.556;2023-05-23T17:56:54;3.47;;;1.70;;
73337;SDS011;61575;49.908;35.556;2023-05-23T17:59:56;3.30;;;1.50;;
73337;SDS011;61575;49.908;35.556;2023-05-23T18:06:01;3.10;;;1.50;;
73337;SDS011;61575;49.908;35.556;2023-05-23T18:09:03;3.63;;;1.45;;
73337;SDS011;61575;49.908;35.556;2023-05-23T18:12:05;3.17;;;1.60;;
73337;SDS011;61575;49.908;35.556;2023-05-23T18:15:07;2.75;;;1.35;;
73337;SDS011;61575;49.908;35.556;2023-05-23T18:18:10;2.60;;;1.45;;
73337;SDS011;61575;49.908;35.556;2023-05-23T18:24:15;2.70;;;1.25;;
73337;SDS011;61575;49.908;35.556;2023-05-23T18:27:16;2.78;;;1.13;;
73337;SDS011;61575;49.908;35.556;2023-05-23T18:30:18;4.63;;;1.60;;
73337;SDS011;61575;49.908;35.556;2023-05-23T18:33:20;3.20;;;1.50;;
73337;SDS011;61575;49.908;35.556;2023-05-23T18:36:22;3.05;;;1.42;;
73337;SDS011;61575;49.908;35.556;2023-05-23T18:39:24;4.00;;;1.70;;
73337;SDS011;61575;49.908;35.556;2023-05-23T18:42:26;3.83;;;1.90;;
73337;SDS011;61575;49.908;35.556;2023-05-23T18:45:30;3.63;;;1.70;;
73337;SDS011;61575;49.908;35.556;2023-05-23T18:48:31;3.97;;;1.65;;
73337;SDS011;61575;49.908;35.556;2023-05-23T18:51:36;3.42;;;1.67;;
73337;SDS011;61575;49.908;35.556;2023-05-23T18:54:38;3.13;;;1.77;;
73337;SDS011;61575;49.908;35.556;2023-05-23T18:57:40;4.25;;;1.83;;
73337;SDS011;61575;49.908;35.556;2023-05-23T19:00:42;3.78;;;1.70;;
73337;SDS011;61575;49.908;35.556;2023-05-23T19:03:45;4.50;;;1.83;;
73337;SDS011;61575;49.908;35.556;2023-05-23T19:06:47;4.85;;;1.63;;
73337;SDS011;61575;49.908;35.556;2023-05-23T19:09:50;4.32;;;1.90;;
73337;SDS011;61575;49.908;35.556;2023-05-23T19:12:51;5.25;;;1.67;;
73337;SDS011;61575;49.908;35.556;2023-05-23T19:15:53;3.50;;;1.70;;
73337;SDS011;61575;49.908;35.556;2023-05-23T19:18:55;3.92;;;1.70;;
73337;SDS011;61575;49.908;35.556;2023-05-23T19:25:01;4.10;;;1.80;;
73337;SDS011;61575;49.908;35.556;2023-05-23T19:28:03;4.07;;;1.77;;